KMSP

Minneapolis-St Paul International / Wold-Chamberlain Airport

Minneapolis, Minnesota, USA
METAR KMSP 231553Z 29010KT 8SM OVC013 M03/M05 A3013 RMK AO2 SLP217 T10331050
Observed Flight Rules
Feb-23 @ 15:53 UTC (44 minutes ago) Marginal Visual Flight Rules
Wind Visibility Clouds
290° at 10 knots 8 miles
  • Overcast at 1,300' AGL
Temperatures Readings
Current -3°C / 27°F
Dewpoint -5°C / 23°F
Humidity 86%
Altimeter 30.13" Hg
Pressure 1021.7 hPa
Elevation 265
METAR KMSP 231553Z 29010KT 8SM OVC013 M03/M05 A3013 RMK AO2 SLP217 T10331050
Observed Flight Rules
Feb-23 @ 15:53 UTC
(44 minutes ago)
MVFR
Wind Visibility
290° at 10 knots 8 miles
Clouds
  • Overcast at 1,300' AGL
Temperature Dewpoint
-3°C / 27°F -5°C / 23°F
Humidity Altimeter Pressure
86% 30.13" Hg 1021.7 hPa